Augusta, New York
Current Conditions -  °F | °C
As of 9:53 AM on Saturday 01 Nov 2014 (Local Time) from KRME Reporting Station
Overcast Overcast  
Wind Chill: 32°   Ceiling: 5500
Heat Index: 39°   Visibility: 10mi
Dew Point: 31°   Wind: 10mph
Humidity: 73%   Direction: 20°NNE
Pressure: 30.03"   Gusts: 17mph
Location:  42.9771°N, 75.5023°W
Report Text: KRME 011353Z 02009G15KT 10SM OVC055 04/M01 A3003 RMK AO2 SLP170 T00391006
Loading
Personal Weather Stations






























Interactive Weather Map
Tropical Storm Tracking
New forecast layout! Learn more

10-Day Weather Forecast

Advertisements
Track Severe Weather on mobile